Time;durP1;ratioP1;P1;durP2;ratioP2;P2;SDS_P1;SDS_P2;PMS_P1;PMS_P2;Temp;Humidity;BMP_temperature;BMP_pressure;BME280_temperature;BME280_humidity;BME280_pressure;Samples;Min_cycle;Max_cycle;Signal;HPM_P1;HPM_P2
2021/07/09 05:58:56;;;;;;;;;13.25;10.50;;;;;19.26;66.05;102178.06;5155073;22;45984;-76
2021/07/09 06:01:21;;;;;;;;;14.50;12.75;;;;;19.31;65.63;102181.41;4957867;28;45380;-77
2021/07/09 06:03:46;;;;;;;;;12.25;12.25;;;;;19.37;64.46;102179.38;4965632;28;45692;-77
2021/07/09 06:06:12;;;;;;;;;11.00;9.00;;;;;19.42;64.54;102172.03;4964059;28;46973;-79
2021/07/09 06:08:37;;;;;;;;;9.00;8.00;;;;;19.47;64.02;102172.66;4960341;28;46860;-76
2021/07/09 06:11:03;;;;;;;;;15.25;13.00;;;;;19.59;64.32;102178.34;4957732;28;45560;-76
2021/07/09 06:13:28;;;;;;;;;17.75;12.25;;;;;19.64;64.25;102169.19;4960206;28;45228;-76
2021/07/09 06:15:55;;;;;;;;;15.00;13.50;;;;;19.73;63.66;102175.03;4970472;28;45549;-76
2021/07/09 06:18:20;;;;;;;;;10.50;9.75;;;;;19.76;63.84;102177.50;4958496;28;48225;-76
2021/07/09 06:20:45;;;;;;;;;15.25;14.50;;;;;19.78;62.80;102181.84;4959254;28;45563;-76
2021/07/09 06:23:11;;;;;;;;;13.00;11.50;;;;;19.78;63.78;102178.28;4958342;28;46184;-76
2021/07/09 06:25:36;;;;;;;;;10.25;9.75;;;;;19.82;64.02;102182.56;4959710;28;45305;-76
2021/07/09 06:28:02;;;;;;;;;17.75;13.00;;;;;19.83;62.75;102184.28;4959467;28;45462;-76
2021/07/09 06:30:27;;;;;;;;;10.00;10.00;;;;;19.84;63.11;102180.69;4960064;28;45368;-76
2021/07/09 06:32:53;;;;;;;;;14.00;12.00;;;;;19.90;63.23;102191.03;4959091;28;45710;-76
2021/07/09 06:35:18;;;;;;;;;8.25;8.25;;;;;19.95;62.92;102197.97;4958421;28;47072;-76
2021/07/09 06:37:44;;;;;;;;;11.25;9.25;;;;;20.00;62.72;102194.09;4958669;28;47263;-76
2021/07/09 06:40:11;;;;;;;;;12.75;10.00;;;;;20.08;62.65;102200.84;4959936;28;45301;-82
2021/07/09 06:42:37;;;;;;;;;8.50;7.75;;;;;20.13;62.69;102194.38;4962092;28;45284;-81
2021/07/09 06:45:04;;;;;;;;;8.75;8.25;;;;;20.20;62.32;102200.25;4962437;28;45226;-84
2021/07/09 06:47:29;;;;;;;;;10.25;9.75;;;;;20.26;62.48;102198.22;4970551;28;45690;-83
2021/07/09 06:49:55;;;;;;;;;12.25;12.25;;;;;20.29;62.54;102196.28;4962142;28;45273;-76
2021/07/09 06:52:20;;;;;;;;;11.75;11.75;;;;;20.31;62.05;102190.84;4963096;28;45286;-76
2021/07/09 06:54:46;;;;;;;;;13.50;11.25;;;;;20.34;61.90;102196.03;4962498;28;45629;-76
2021/07/09 06:57:11;;;;;;;;;16.50;13.00;;;;;20.28;61.47;102191.88;4962608;28;46188;-76
2021/07/09 06:59:36;;;;;;;;;15.50;13.50;;;;;20.29;61.22;102204.28;4962210;28;45516;-76
2021/07/09 07:02:02;;;;;;;;;11.00;10.50;;;;;20.26;61.87;102208.91;4962939;28;45786;-79
2021/07/09 07:04:27;;;;;;;;;9.00;8.00;;;;;20.28;61.51;102199.00;4962207;28;45535;-78
2021/07/09 07:06:53;;;;;;;;;9.50;8.00;;;;;20.34;61.61;102202.25;4974027;28;45487;-74
2021/07/09 07:09:19;;;;;;;;;13.25;11.25;;;;;20.40;62.36;102205.50;4961256;28;45321;-76
2021/07/09 07:11:45;;;;;;;;;12.50;10.00;;;;;20.44;61.69;102197.28;4977392;28;45452;-76
2021/07/09 07:14:10;;;;;;;;;8.50;8.50;;;;;20.50;61.86;102203.22;4962011;28;45435;-76
2021/07/09 07:16:36;;;;;;;;;10.50;8.50;;;;;20.56;61.10;102213.59;4961169;28;47292;-75
2021/07/09 07:19:01;;;;;;;;;13.75;12.25;;;;;20.62;61.46;102205.25;4962269;28;45349;-75
2021/07/09 07:21:27;;;;;;;;;11.50;9.75;;;;;20.65;60.98;102207.78;4977765;28;45416;-76
2021/07/09 07:23:52;;;;;;;;;10.00;9.50;;;;;20.69;61.21;102212.00;4961271;28;45314;-76
2021/07/09 07:26:17;;;;;;;;;10.50;9.00;;;;;20.77;60.95;102213.41;4961960;28;45358;-74
2021/07/09 07:28:43;;;;;;;;;12.75;9.75;;;;;20.78;60.96;102207.13;4961865;28;45447;-74
2021/07/09 07:31:09;;;;;;;;;14.50;12.50;;;;;20.84;61.37;102217.47;4962713;28;45248;-74
2021/07/09 07:33:36;;;;;;;;;10.75;9.75;;;;;20.85;61.04;102213.88;4961992;28;45490;-75
2021/07/09 07:36:01;;;;;;;;;13.00;11.00;;;;;20.83;60.88;102214.91;4959406;28;46504;-74
2021/07/09 07:38:27;;;;;;;;;14.25;11.25;;;;;20.82;60.40;102208.69;4960814;28;45349;-74
2021/07/09 07:40:52;;;;;;;;;12.75;11.75;;;;;20.85;60.97;102211.19;4961619;28;45325;-74
2021/07/09 07:43:17;;;;;;;;;12.75;11.50;;;;;20.89;60.51;102217.25;4960316;28;45384;-74
2021/07/09 07:45:43;;;;;;;;;15.25;11.25;;;;;20.88;59.72;102216.38;4960761;28;45357;-74
2021/07/09 07:48:08;;;;;;;;;15.75;11.75;;;;;20.84;60.02;102211.28;4960019;28;45433;-74
2021/07/09 07:50:34;;;;;;;;;14.00;12.00;;;;;20.83;60.32;102217.56;4959882;28;45448;-74
2021/07/09 07:52:59;;;;;;;;;16.75;14.75;;;;;20.85;60.64;102216.53;4959950;28;45447;-74
2021/07/09 07:55:25;;;;;;;;;15.25;14.00;;;;;20.87;60.40;102211.09;4960135;28;45464;-74
2021/07/09 07:57:50;;;;;;;;;12.00;10.50;;;;;20.88;60.33;102215.50;4961459;28;45321;-74
2021/07/09 08:00:16;;;;;;;;;12.00;10.75;;;;;20.89;60.07;102207.41;4961288;28;45486;-74
2021/07/09 08:02:41;;;;;;;;;12.25;10.00;;;;;20.94;60.32;102214.34;4962026;28;45440;-74
2021/07/09 08:05:08;;;;;;;;;11.25;11.25;;;;;20.95;60.24;102210.69;4959991;28;46406;-74
2021/07/09 08:07:34;;;;;;;;;15.00;12.00;;;;;20.95;60.42;102205.34;4967898;28;46523;-74
2021/07/09 08:10:00;;;;;;;;;10.00;9.75;;;;;21.01;61.19;102213.91;4961555;28;45327;-73
2021/07/09 08:12:25;;;;;;;;;13.75;13.00;;;;;20.99;60.93;102204.25;4961592;28;45457;-74
2021/07/09 08:14:51;;;;;;;;;14.75;13.50;;;;;21.00;60.61;102205.97;4961168;28;45448;-73
2021/07/09 08:17:16;;;;;;;;;11.00;10.25;;;;;21.00;60.44;102209.53;4960411;28;45805;-73
2021/07/09 08:19:41;;;;;;;;;7.00;7.00;;;;;21.01;60.03;102207.72;4961262;28;45466;-73
2021/07/09 08:22:07;;;;;;;;;8.25;8.25;;;;;21.01;60.16;102205.06;4961214;28;45447;-73
2021/07/09 08:24:32;;;;;;;;;14.00;11.00;;;;;21.02;60.39;102201.44;4961833;28;45383;-73
2021/07/09 08:26:58;;;;;;;;;9.25;9.25;;;;;21.05;60.31;102198.59;4959102;28;45844;-73
2021/07/09 08:29:23;;;;;;;;;10.50;8.75;;;;;21.06;59.96;102194.13;4961337;28;45396;-73
2021/07/09 08:31:49;;;;;;;;;12.50;9.75;;;;;21.05;59.62;102200.41;4961300;28;45456;-74
2021/07/09 08:34:14;;;;;;;;;9.75;8.75;;;;;21.05;59.37;102195.91;4961129;28;45265;-73
2021/07/09 08:36:39;;;;;;;;;12.25;9.75;;;;;21.05;58.40;102190.56;4976182;28;45307;-73
2021/07/09 08:39:05;;;;;;;;;11.00;9.00;;;;;21.06;58.31;102194.13;4960852;28;45297;-73
2021/07/09 08:41:32;;;;;;;;;11.25;8.00;;;;;21.09;57.92;102185.91;4961062;28;45487;-73
2021/07/09 08:43:57;;;;;;;;;9.25;7.00;;;;;21.11;57.95;102186.72;4960368;28;45329;-73
2021/07/09 08:46:27;;;;;;;;;10.75;7.00;;;;;21.16;57.92;102191.81;4961092;28;45274;-73
2021/07/09 08:48:53;;;;;;;;;10.50;6.50;;;;;21.16;56.31;102191.81;4961184;28;45371;-73
2021/07/09 08:51:18;;;;;;;;;9.75;7.00;;;;;21.13;56.35;102183.00;4960727;28;46787;-73
2021/07/09 08:53:44;;;;;;;;;7.75;7.75;;;;;21.14;57.31;102186.53;4961026;28;45476;-74
2021/07/09 08:56:10;;;;;;;;;7.50;7.25;;;;;21.17;56.86;102182.81;4961419;28;45347;-74
2021/07/09 08:58:35;;;;;;;;;11.00;8.75;;;;;21.18;57.40;102189.91;4954694;28;45538;-74
2021/07/09 09:01:00;;;;;;;;;8.50;7.75;;;;;21.20;57.42;102183.53;4956109;28;45662;-73
2021/07/09 09:03:27;;;;;;;;;6.25;6.25;;;;;21.24;57.65;102174.38;4955840;28;46034;-73
2021/07/09 09:06:00;;;;;;;;;6.50;6.50;;;;;21.30;57.26;102180.31;4961921;28;46006;-73
2021/07/09 09:08:26;;;;;;;;;7.25;7.00;;;;;21.35;57.23;102179.13;4967789;28;45313;-73
2021/07/09 09:10:55;;;;;;;;;8.25;8.25;;;;;21.40;57.06;102180.66;4960437;28;46526;-73
2021/07/09 09:13:30;;;;;;;;;8.00;7.00;;;;;21.39;57.18;102181.59;4952281;28;47344;-73
2021/07/09 09:16:04;;;;;;;;;7.25;6.00;;;;;21.36;56.86;102180.84;4959752;28;45559;-73
2021/07/09 09:18:36;;;;;;;;;10.00;8.00;;;;;21.36;57.07;102178.16;4960590;28;45222;-73
2021/07/09 09:21:06;;;;;;;;;7.25;7.25;;;;;21.36;57.05;102178.16;4960791;28;45372;-73
2021/07/09 09:23:35;;;;;;;;;9.75;8.75;;;;;21.40;56.33;102178.88;4960469;28;45648;-73
2021/07/09 09:26:01;;;;;;;;;5.50;5.50;;;;;21.42;56.60;102181.44;4960861;28;45556;-73
2021/07/09 09:28:27;;;;;;;;;8.75;7.50;;;;;21.47;56.54;102174.03;4959347;28;45299;-73
2021/07/09 09:30:55;;;;;;;;;10.75;6.75;;;;;21.49;56.32;102188.16;4960065;28;45397;-74
2021/07/09 09:33:21;;;;;;;;;10.00;10.00;;;;;21.51;56.23;102188.09;4959670;28;45294;-73
2021/07/09 09:35:56;;;;;;;;;7.75;7.75;;;;;21.51;55.47;102175.56;4959422;28;45703;-73
2021/07/09 09:38:29;;;;;;;;;11.25;9.75;;;;;21.53;56.19;102181.69;4960564;28;45844;-73
2021/07/09 09:40:57;;;;;;;;;7.75;5.75;;;;;21.55;56.06;102177.13;4960396;28;45530;-73
2021/07/09 09:43:25;;;;;;;;;7.00;7.00;;;;;21.57;56.36;102177.91;4974962;28;47190;-73
2021/07/09 09:45:57;;;;;;;;;7.00;6.00;;;;;21.59;56.25;102176.00;4959169;28;45443;-73
2021/07/09 09:48:22;;;;;;;;;6.00;6.00;;;;;21.61;55.91;102178.56;4958970;28;45472;-73
2021/07/09 09:50:50;;;;;;;;;6.75;6.25;;;;;21.64;56.50;102175.72;4958611;28;45489;-74
2021/07/09 09:53:31;;;;;;;;;10.25;8.50;;;;;21.67;55.96;102175.56;4958320;28;47345;-74
2021/07/09 09:56:05;;;;;;;;;8.25;7.00;;;;;21.65;56.26;102176.59;4960434;28;45309;-75
2021/07/09 09:58:30;;;;;;;;;8.25;7.75;;;;;21.60;56.34;102168.84;4958042;28;45499;-74
2021/07/09 10:00:56;;;;;;;;;7.25;7.25;;;;;21.52;56.37;102171.97;4958903;28;45536;-75
2021/07/09 10:03:21;;;;;;;;;8.00;7.25;;;;;21.48;56.41;102168.56;4960138;28;45561;-74
2021/07/09 10:05:49;;;;;;;;;8.25;8.25;;;;;21.43;56.15;102172.47;4976697;28;45324;-74
2021/07/09 10:08:18;;;;;;;;;7.50;7.50;;;;;21.42;56.45;102173.41;4967090;28;45337;-74
2021/07/09 10:10:44;;;;;;;;;10.00;8.50;;;;;21.43;55.81;102164.47;4959146;28;45450;-74
2021/07/09 10:13:18;;;;;;;;;10.00;10.00;;;;;21.47;56.72;102166.88;4958488;28;47671;-74
2021/07/09 10:15:48;;;;;;;;;9.25;7.00;;;;;21.51;56.44;102164.88;4951226;28;45227;-74
2021/07/09 10:18:15;;;;;;;;;8.50;7.75;;;;;21.52;56.46;102171.09;4961528;28;45351;-74
2021/07/09 10:20:43;;;;;;;;;10.75;8.50;;;;;21.55;56.37;102166.44;4968140;28;47431;-74
2021/07/09 10:23:13;;;;;;;;;9.00;7.25;;;;;21.59;56.84;102167.09;4961564;28;45633;-75
2021/07/09 10:25:39;;;;;;;;;9.25;8.75;;;;;21.65;55.30;102174.78;4961227;28;45584;-75
2021/07/09 10:28:07;;;;;;;;;9.75;8.00;;;;;21.70;56.18;102164.66;4963066;28;45507;-75
2021/07/09 10:30:41;;;;;;;;;9.00;7.75;;;;;21.74;56.50;102165.34;4963452;28;45332;-75
2021/07/09 10:33:33;;;;;;;;;7.50;6.50;;;;;21.79;56.45;102162.41;4963601;28;45459;-75
2021/07/09 10:36:04;;;;;;;;;12.25;7.75;;;;;21.79;56.58;102157.94;4963003;28;45731;-78
2021/07/09 10:38:42;;;;;;;;;8.75;8.00;;;;;21.90;56.12;102160.00;4963091;28;45396;-73
2021/07/09 10:41:18;;;;;;;;;10.25;8.00;;;;;21.92;55.58;102159.91;4962795;28;45317;-74
2021/07/09 10:44:12;;;;;;;;;7.25;7.25;;;;;21.83;55.76;102158.59;4950862;28;45502;-73
2021/07/09 10:46:37;;;;;;;;;9.00;7.00;;;;;21.78;55.77;102158.88;4963106;28;45388;-73
2021/07/09 10:49:02;;;;;;;;;5.50;5.50;;;;;21.86;55.67;102157.56;4977588;28;45544;-74
2021/07/09 10:51:57;;;;;;;;;10.00;8.50;;;;;21.94;55.03;102160.69;4962200;28;45325;-76
2021/07/09 10:54:30;;;;;;;;;8.25;6.25;;;;;21.98;55.92;102148.84;4943420;28;48461;-76
2021/07/09 10:57:21;;;;;;;;;11.50;7.75;;;;;22.06;55.03;102151.06;4962079;28;45497;-74
2021/07/09 11:00:26;;;;;;;;;9.00;7.50;;;;;22.16;55.02;102151.38;4960977;28;45425;-74
2021/07/09 11:03:02;;;;;;;;;9.25;6.75;;;;;22.20;55.69;102144.03;4961052;28;45464;-73
2021/07/09 11:05:51;;;;;;;;;6.00;6.00;;;;;22.23;55.17;102144.69;4962008;28;45413;-74
2021/07/09 11:08:32;;;;;;;;;7.00;6.75;;;;;22.16;55.06;102143.31;4952781;28;45282;-74
2021/07/09 11:11:12;;;;;;;;;5.50;5.50;;;;;22.12;54.72;102140.00;4962751;28;45261;-74
2021/07/09 11:13:46;;;;;;;;;6.00;6.00;;;;;22.15;54.64;102131.75;4962363;28;45392;-74
2021/07/09 11:16:24;;;;;;;;;6.25;6.25;;;;;22.21;53.68;102129.66;4960727;28;47915;-74
2021/07/09 11:19:10;;;;;;;;;6.00;6.00;;;;;22.20;54.03;102128.78;4962486;28;45282;-74
2021/07/09 11:21:36;;;;;;;;;7.00;6.00;;;;;22.17;54.54;102120.09;4961036;28;45555;-74
2021/07/09 11:24:01;;;;;;;;;5.50;5.50;;;;;22.20;54.64;102118.09;4962769;28;45328;-74
2021/07/09 11:26:32;;;;;;;;;4.33;4.33;;;;;22.23;51.28;102115.22;4962706;28;45264;-74
2021/07/09 11:28:58;;;;;;;;;5.75;4.75;;;;;22.20;52.59;102110.03;4962045;28;45427;-74
2021/07/09 11:31:37;;;;;;;;;5.50;5.50;;;;;22.25;53.40;102115.13;4962337;28;45453;-74
2021/07/09 11:34:04;;;;;;;;;6.50;6.00;;;;;22.23;53.68;102112.53;4961123;28;46333;-74
2021/07/09 11:36:46;;;;;;;;;8.50;5.00;;;;;22.23;53.86;102109.00;4962540;28;45457;-74
2021/07/09 11:39:17;;;;;;;;;7.25;7.00;;;;;22.16;53.41;102103.16;4962255;28;45577;-74
2021/07/09 11:42:00;;;;;;;;;9.50;7.50;;;;;22.07;54.16;102107.28;4961347;28;45632;-74
2021/07/09 11:44:39;;;;;;;;;6.25;6.25;;;;;22.07;53.65;102104.59;4948698;28;46003;-74
2021/07/09 11:47:11;;;;;;;;;8.50;7.00;;;;;22.03;53.95;102101.22;4961672;28;46156;-74
2021/07/09 11:49:46;;;;;;;;;7.50;5.50;;;;;22.00;54.02;102097.91;4961445;28;45368;-74
2021/07/09 11:52:13;;;;;;;;;7.00;6.25;;;;;22.09;53.01;102091.13;4960914;28;45249;-74
2021/07/09 11:54:46;;;;;;;;;6.00;5.50;;;;;22.18;54.89;102087.00;4960509;28;45343;-74
2021/07/09 11:57:14;;;;;;;;;7.50;6.00;;;;;22.26;54.48;102087.41;4961559;28;45484;-74
2021/07/09 11:59:41;;;;;;;;;5.75;5.75;;;;;22.37;53.90;102089.41;4961871;28;45819;-74
2021/07/09 12:02:22;;;;;;;;;6.00;5.50;;;;;22.43;53.80;102077.44;4961732;28;45290;-75
2021/07/09 12:04:51;;;;;;;;;9.00;8.00;;;;;22.48;53.82;102084.25;4961975;28;45387;-74
2021/07/09 12:07:31;;;;;;;;;6.25;6.25;;;;;22.43;53.41;102083.66;4964553;28;46951;-74
2021/07/09 12:10:11;;;;;;;;;7.75;7.00;;;;;22.39;52.76;102074.13;4961841;28;45392;-74
2021/07/09 12:12:45;;;;;;;;;8.25;5.50;;;;;22.40;53.30;102074.97;4962034;28;45250;-74
2021/07/09 12:15:19;;;;;;;;;6.00;5.75;;;;;22.37;51.22;102070.69;4959233;28;45318;-74
2021/07/09 12:17:47;;;;;;;;;7.75;7.75;;;;;22.41;52.98;102064.16;4957810;28;47055;-74
2021/07/09 12:20:19;;;;;;;;;6.75;6.75;;;;;22.44;52.92;102063.09;4961905;28;45462;-74
2021/07/09 12:23:00;;;;;;;;;5.25;5.25;;;;;22.48;51.67;102068.16;4961797;28;45326;-74
2021/07/09 12:25:33;;;;;;;;;5.75;5.50;;;;;22.48;52.14;102057.47;4960405;28;45215;-74
2021/07/09 12:28:05;;;;;;;;;6.00;5.00;;;;;22.49;52.00;102059.16;4961443;28;46550;-74
2021/07/09 12:30:34;;;;;;;;;5.25;5.25;;;;;22.41;52.37;102056.13;4961654;28;45336;-74
2021/07/09 12:33:02;;;;;;;;;5.25;5.25;;;;;22.34;51.87;102054.78;4961480;28;45448;-74
2021/07/09 12:35:30;;;;;;;;;4.00;4.00;;;;;22.29;50.55;102057.75;4958870;28;47198;-74
2021/07/09 12:37:58;;;;;;;;;7.50;7.00;;;;;22.30;52.53;102058.63;4960843;28;45361;-74
2021/07/09 12:40:35;;;;;;;;;5.50;4.50;;;;;22.31;52.74;102055.84;4976357;28;45635;-74
2021/07/09 12:43:23;;;;;;;;;7.25;7.25;;;;;22.34;52.27;102058.34;4960306;28;46442;-74
2021/07/09 12:46:11;;;;;;;;;6.00;5.00;;;;;22.29;52.58;102054.22;4960645;28;45486;-74
2021/07/09 12:48:39;;;;;;;;;4.00;4.00;;;;;22.34;52.82;102050.31;4961078;28;45548;-74
2021/07/09 12:51:29;;;;;;;;;9.50;6.50;;;;;22.43;53.02;102056.88;4961426;28;45686;-74
2021/07/09 12:54:03;;;;;;;;;10.00;8.50;;;;;22.46;52.16;102053.16;4976554;28;45444;-74
2021/07/09 12:56:31;;;;;;;;;5.00;5.00;;;;;22.45;52.71;102051.41;4961209;28;45463;-74
2021/07/09 12:59:03;;;;;;;;;7.00;7.00;;;;;22.49;52.53;102051.13;4960742;28;46361;-74
2021/07/09 13:01:29;;;;;;;;;5.00;5.00;;;;;22.52;50.95;102050.06;4960923;28;45407;-74
2021/07/09 13:03:55;;;;;;;;;6.00;6.00;;;;;22.61;52.13;102040.59;4961407;28;45297;-74
2021/07/09 13:06:27;;;;;;;;;6.75;4.25;;;;;22.64;52.23;102034.19;4978144;28;46128;-74
2021/07/09 13:09:09;;;;;;;;;5.50;5.50;;;;;22.70;52.34;102041.84;4959568;28;46662;-74
2021/07/09 13:11:38;;;;;;;;;7.00;6.25;;;;;22.74;52.36;102037.16;4975865;28;45471;-74
2021/07/09 13:14:04;;;;;;;;;3.25;3.00;;;;;22.76;51.18;102038.78;4975097;28;45382;-74
2021/07/09 13:16:29;;;;;;;;;6.00;3.00;;;;;22.80;51.70;102039.44;4960238;28;45249;-74
2021/07/09 13:18:57;;;;;;;;;5.50;5.00;;;;;22.83;51.26;102025.84;4961003;28;47137;-74
2021/07/09 13:21:28;;;;;;;;;5.00;4.75;;;;;22.89;51.76;102033.47;4959831;28;46003;-74
2021/07/09 13:24:11;;;;;;;;;9.00;7.50;;;;;22.91;51.26;102036.94;4961281;28;45271;-74
2021/07/09 13:26:38;;;;;;;;;5.75;5.00;;;;;22.94;51.39;102030.47;4951755;28;46257;-74
2021/07/09 13:29:25;;;;;;;;;5.00;4.75;;;;;22.97;50.30;102032.09;4955272;28;45672;-74
2021/07/09 13:32:00;;;;;;;;;6.00;4.50;;;;;23.00;51.34;102034.59;4955598;28;45479;-75
2021/07/09 13:34:26;;;;;;;;;8.75;5.25;;;;;23.01;50.33;102031.81;4960810;28;45444;-74
2021/07/09 13:36:53;;;;;;;;;4.00;4.00;;;;;23.02;50.21;102028.16;4957057;28;46031;-74
2021/07/09 13:39:19;;;;;;;;;7.00;5.00;;;;;23.03;50.68;102024.53;4958771;28;46067;-74
2021/07/09 13:41:44;;;;;;;;;6.75;4.25;;;;;23.08;51.08;102021.56;4960390;28;45562;-74
2021/07/09 13:44:10;;;;;;;;;5.75;4.75;;;;;23.12;49.88;102028.41;4943469;28;45486;-74
2021/07/09 13:46:36;;;;;;;;;6.00;6.00;;;;;23.16;50.63;102023.72;4958931;28;45857;-75
2021/07/09 13:49:03;;;;;;;;;6.25;4.00;;;;;23.17;50.82;102025.44;4959705;28;47276;-75
2021/07/09 13:51:30;;;;;;;;;6.75;6.75;;;;;23.17;50.96;102025.44;4961266;28;45464;-75
2021/07/09 13:53:55;;;;;;;;;5.00;4.25;;;;;23.19;49.65;102017.31;4967240;28;45441;-75
2021/07/09 13:56:21;;;;;;;;;5.75;5.00;;;;;23.19;50.00;102015.44;4964928;28;45441;-75
2021/07/09 13:58:46;;;;;;;;;8.50;8.25;;;;;23.22;50.28;102014.38;4958069;28;45655;-75
2021/07/09 14:01:13;;;;;;;;;8.00;7.25;;;;;23.23;50.69;102019.66;4961953;28;45291;-75
2021/07/09 14:03:40;;;;;;;;;5.75;5.50;;;;;23.22;50.65;102022.44;4962162;28;45279;-75
2021/07/09 14:06:06;;;;;;;;;6.00;6.00;;;;;23.19;51.25;102015.44;4962606;28;45171;-74
2021/07/09 14:08:32;;;;;;;;;6.00;6.00;;;;;23.21;50.36;102018.06;4963029;28;45361;-75
2021/07/09 14:10:59;;;;;;;;;5.00;5.00;;;;;23.24;50.63;102010.66;4960935;28;45510;-74
2021/07/09 14:13:27;;;;;;;;;4.00;4.00;;;;;23.27;51.53;102012.25;4961464;28;45357;-74
2021/07/09 14:15:53;;;;;;;;;6.50;5.25;;;;;23.30;50.65;102009.38;4962494;28;47274;-75
2021/07/09 14:18:18;;;;;;;;;5.75;5.00;;;;;23.27;50.43;102009.56;4974127;28;48441;-75
2021/07/09 14:20:44;;;;;;;;;6.00;6.00;;;;;23.21;50.71;102005.47;4962376;28;45289;-75
2021/07/09 14:23:10;;;;;;;;;6.00;6.00;;;;;23.18;50.89;102007.53;4961566;28;45298;-74
2021/07/09 14:25:35;;;;;;;;;8.00;4.50;;;;;23.18;50.82;102004.84;4963581;28;45210;-74
2021/07/09 14:28:01;;;;;;;;;5.00;4.25;;;;;23.20;50.65;102002.91;4962410;28;45222;-75
2021/07/09 14:30:26;;;;;;;;;7.00;7.00;;;;;23.22;50.56;101990.25;4962378;28;45286;-75
2021/07/09 14:32:52;;;;;;;;;9.50;6.50;;;;;23.23;51.00;101992.84;4963255;28;45496;-75
2021/07/09 14:35:18;;;;;;;;;8.25;7.00;;;;;23.23;50.44;101998.22;4962693;28;45526;-75
2021/07/09 14:37:46;;;;;;;;;5.00;5.00;;;;;23.22;50.65;101987.56;4963360;28;45367;-75
2021/07/09 14:40:12;;;;;;;;;5.75;5.00;;;;;23.21;50.59;101992.06;4961391;28;45342;-75
2021/07/09 14:42:39;;;;;;;;;5.25;5.25;;;;;23.21;50.42;101988.56;4963371;28;45477;-75
2021/07/09 14:45:09;;;;;;;;;5.00;5.00;;;;;23.21;49.99;101983.19;4962617;28;45535;-75
2021/07/09 14:47:35;;;;;;;;;0.00;0.00;;;;;23.20;49.68;101993.06;4962445;28;45435;-75
2021/07/09 14:50:05;;;;;;;;;6.50;6.50;;;;;23.20;50.56;101982.31;4962919;28;45451;-75
2021/07/09 14:52:31;;;;;;;;;8.25;8.25;;;;;23.21;50.73;101977.81;4951668;28;45369;-75
2021/07/09 14:54:56;;;;;;;;;7.00;5.25;;;;;23.21;50.58;101980.50;4962855;28;45546;-75
2021/07/09 14:57:22;;;;;;;;;5.25;5.25;;;;;23.18;50.21;101978.03;4962967;28;46240;-75
2021/07/09 14:59:47;;;;;;;;;8.75;7.00;;;;;23.14;50.43;101980.03;4960218;28;45333;-75
2021/07/09 15:02:12;;;;;;;;;7.00;6.00;;;;;23.10;50.73;101979.41;4960250;28;45991;-75
2021/07/09 15:04:38;;;;;;;;;6.75;6.75;;;;;23.09;50.34;101975.00;4963041;28;45479;-75
2021/07/09 15:07:04;;;;;;;;;6.75;6.00;;;;;23.08;50.45;101975.97;4969912;28;45638;-75
2021/07/09 15:09:30;;;;;;;;;4.75;4.75;;;;;23.07;50.71;101963.50;4960252;28;45523;-75
2021/07/09 15:11:55;;;;;;;;;8.50;6.00;;;;;23.10;51.28;101965.13;4962860;28;45392;-75
2021/07/09 15:14:20;;;;;;;;;4.75;4.75;;;;;23.07;50.99;101960.84;4961753;28;45630;-75
2021/07/09 15:16:46;;;;;;;;;5.00;5.00;;;;;23.07;50.90;101960.84;4962846;28;45343;-75
2021/07/09 15:19:11;;;;;;;;;5.00;5.00;;;;;23.10;50.42;101957.09;4962643;28;45250;-74
2021/07/09 15:21:36;;;;;;;;;4.00;4.00;;;;;23.11;50.48;101965.00;4961402;28;45334;-77
2021/07/09 15:24:02;;;;;;;;;8.75;7.25;;;;;23.10;50.70;101963.31;4961405;28;45415;-75
2021/07/09 15:26:27;;;;;;;;;4.50;4.50;;;;;23.10;50.75;101962.44;4962369;28;45784;-75
2021/07/09 15:28:53;;;;;;;;;6.75;4.75;;;;;23.06;50.51;101959.13;4959846;28;47024;-75
2021/07/09 15:31:18;;;;;;;;;6.75;4.25;;;;;23.04;49.79;101955.66;4962897;28;45344;-75
2021/07/09 15:33:43;;;;;;;;;6.00;4.00;;;;;23.01;49.93;101954.09;4962351;28;45515;-74
2021/07/09 15:36:09;;;;;;;;;4.25;4.25;;;;;23.03;49.38;101954.84;4978430;28;47506;-74
2021/07/09 15:38:34;;;;;;;;;3.50;3.50;;;;;23.07;48.36;101944.75;4971954;28;45273;-74
2021/07/09 15:41:00;;;;;;;;;6.00;4.50;;;;;23.12;49.28;101945.28;4959318;28;45400;-75
2021/07/09 15:43:25;;;;;;;;;7.00;5.50;;;;;23.20;49.68;101949.28;4960507;28;45361;-75
2021/07/09 15:45:50;;;;;;;;;5.00;3.75;;;;;23.22;49.57;101950.91;4961927;28;46531;-73
2021/07/09 15:48:16;;;;;;;;;5.75;5.25;;;;;23.27;50.51;101953.25;4962179;28;45411;-75
2021/07/09 15:50:42;;;;;;;;;3.00;3.00;;;;;23.33;49.23;101954.66;4961205;28;45487;-74
2021/07/09 15:53:07;;;;;;;;;4.75;4.75;;;;;23.37;49.34;101940.94;4960800;28;47208;-74
2021/07/09 15:55:33;;;;;;;;;6.75;6.00;;;;;23.42;48.64;101945.97;4976140;28;46866;-75
2021/07/09 15:57:58;;;;;;;;;4.00;4.00;;;;;23.44;48.66;101940.50;4960710;28;46414;-75
2021/07/09 16:00:26;;;;;;;;;6.00;4.00;;;;;23.47;49.15;101945.66;4961920;28;45393;-75
2021/07/09 16:02:51;;;;;;;;;4.00;4.00;;;;;23.47;48.23;101934.94;4960304;28;46116;-74
2021/07/09 16:05:17;;;;;;;;;4.00;4.00;;;;;23.44;47.83;101933.31;4961892;28;45294;-74
2021/07/09 16:07:42;;;;;;;;;3.50;3.50;;;;;23.43;48.52;101926.25;4976140;28;45475;-75
2021/07/09 16:10:08;;;;;;;;;3.00;3.00;;;;;23.43;49.02;101930.75;4962054;28;45273;-75
2021/07/09 16:12:37;;;;;;;;;4.75;4.50;;;;;23.38;48.77;101931.91;4960975;28;45400;-75
2021/07/09 16:15:05;;;;;;;;;5.00;5.00;;;;;23.35;49.05;101933.97;4948684;28;45370;-75
2021/07/09 16:17:30;;;;;;;;;4.25;4.25;;;;;23.34;48.75;101934.91;4960412;28;46084;-75
2021/07/09 16:19:57;;;;;;;;;3.00;3.00;;;;;23.31;48.88;101933.31;4961279;28;45344;-75
2021/07/09 16:22:23;;;;;;;;;5.00;5.00;;;;;23.29;48.87;101932.56;4961323;28;45460;-74
2021/07/09 16:24:48;;;;;;;;;5.00;4.50;;;;;23.29;48.86;101940.59;4961543;28;45273;-75
2021/07/09 16:27:13;;;;;;;;;5.00;5.00;;;;;23.27;48.63;101934.47;4960909;28;45349;-75
2021/07/09 16:29:39;;;;;;;;;6.00;4.75;;;;;23.25;48.81;101937.28;4961430;28;45407;-75
2021/07/09 16:32:05;;;;;;;;;4.00;4.00;;;;;23.24;48.90;101935.56;4960011;28;46044;-75
2021/07/09 16:34:31;;;;;;;;;4.00;4.00;;;;;23.25;50.03;101936.41;4957925;28;48024;-75
2021/07/09 16:36:56;;;;;;;;;4.00;4.00;;;;;23.23;50.26;101927.63;4961332;28;45389;-75
2021/07/09 16:39:21;;;;;;;;;4.00;4.00;;;;;23.22;49.75;101932.13;4972856;28;45535;-75
2021/07/09 16:41:47;;;;;;;;;6.00;5.00;;;;;23.22;50.06;101932.13;4958969;28;45458;-75
2021/07/09 16:44:12;;;;;;;;;5.50;5.50;;;;;23.22;49.97;101923.22;4961130;28;45389;-75
2021/07/09 16:46:37;;;;;;;;;5.50;4.00;;;;;23.19;50.00;101920.75;4976215;28;45367;-74
2021/07/09 16:49:03;;;;;;;;;4.75;4.75;;;;;23.16;49.52;101916.47;4960829;28;45460;-75
2021/07/09 16:51:28;;;;;;;;;5.00;5.00;;;;;23.11;48.82;101913.25;4959674;28;45506;-74
2021/07/09 16:53:54;;;;;;;;;4.50;4.50;;;;;23.07;49.66;101920.63;4960225;28;45532;-75
2021/07/09 16:56:19;;;;;;;;;6.25;5.00;;;;;23.05;49.42;101922.53;4961443;28;45451;-75
2021/07/09 16:58:45;;;;;;;;;4.50;4.00;;;;;23.00;49.76;101919.31;4960360;28;45373;-75
2021/07/09 17:01:11;;;;;;;;;5.75;4.00;;;;;22.91;50.66;101908.28;4960055;28;45314;-74
2021/07/09 17:03:37;;;;;;;;;6.25;5.00;;;;;22.84;51.09;101919.50;4961078;28;45271;-75
2021/07/09 17:06:02;;;;;;;;;7.50;7.50;;;;;22.79;51.06;101914.47;4964904;28;45238;-75
2021/07/09 17:08:29;;;;;;;;;4.25;4.25;;;;;22.77;49.94;101909.19;4972081;28;45411;-75
2021/07/09 17:10:55;;;;;;;;;6.50;4.25;;;;;22.79;49.94;101898.38;4957823;28;45380;-75
2021/07/09 17:13:21;;;;;;;;;6.00;5.25;;;;;22.80;50.46;101897.41;4958484;28;46502;-75
2021/07/09 17:15:46;;;;;;;;;5.75;4.50;;;;;22.83;50.56;101894.53;4960903;28;45135;-75
2021/07/09 17:18:11;;;;;;;;;4.75;4.75;;;;;22.84;50.48;101896.22;4960435;28;45281;-75
2021/07/09 17:20:37;;;;;;;;;5.00;5.00;;;;;22.90;50.71;101905.69;4956391;28;45668;-75
2021/07/09 17:23:06;;;;;;;;;5.00;5.00;;;;;22.90;50.71;101909.22;4958781;28;45807;-75
2021/07/09 17:25:31;;;;;;;;;7.25;5.50;;;;;22.86;49.78;101905.03;4960571;28;45487;-75